sensor_id;sensor_type;location;lat;lon;timestamp;P1;durP1;ratioP1;P2;durP2;ratioP2
26038;SDS011;13815;52.374;4.882;2023-04-25T00:01:22;0.35;;;0.35;;
26038;SDS011;13815;52.374;4.882;2023-04-25T00:03:48;2.63;;;0.73;;
26038;SDS011;13815;52.374;4.882;2023-04-25T00:06:13;0.50;;;0.50;;
26038;SDS011;13815;52.374;4.882;2023-04-25T00:08:39;0.50;;;0.50;;
26038;SDS011;13815;52.374;4.882;2023-04-25T00:11:05;2.92;;;0.85;;
26038;SDS011;13815;52.374;4.882;2023-04-25T00:13:30;0.60;;;0.60;;
26038;SDS011;13815;52.374;4.882;2023-04-25T00:15:56;0.60;;;0.60;;
26038;SDS011;13815;52.374;4.882;2023-04-25T00:18:22;0.60;;;0.60;;
26038;SDS011;13815;52.374;4.882;2023-04-25T00:20:48;0.68;;;0.68;;
26038;SDS011;13815;52.374;4.882;2023-04-25T00:23:14;0.70;;;0.70;;
26038;SDS011;13815;52.374;4.882;2023-04-25T00:25:42;0.70;;;0.70;;
26038;SDS011;13815;52.374;4.882;2023-04-25T00:28:08;0.80;;;0.80;;
26038;SDS011;13815;52.374;4.882;2023-04-25T00:30:34;0.80;;;0.80;;
26038;SDS011;13815;52.374;4.882;2023-04-25T00:32:59;0.70;;;0.70;;
26038;SDS011;13815;52.374;4.882;2023-04-25T00:35:24;0.90;;;0.90;;
26038;SDS011;13815;52.374;4.882;2023-04-25T00:37:50;3.17;;;1.10;;
26038;SDS011;13815;52.374;4.882;2023-04-25T00:40:15;0.85;;;0.85;;
26038;SDS011;13815;52.374;4.882;2023-04-25T00:42:41;1.08;;;1.08;;
26038;SDS011;13815;52.374;4.882;2023-04-25T00:45:06;3.42;;;1.27;;
26038;SDS011;13815;52.374;4.882;2023-04-25T00:47:32;0.95;;;0.95;;
26038;SDS011;13815;52.374;4.882;2023-04-25T00:49:58;0.90;;;0.90;;
26038;SDS011;13815;52.374;4.882;2023-04-25T00:52:23;3.30;;;1.17;;
26038;SDS011;13815;52.374;4.882;2023-04-25T00:54:49;0.93;;;0.93;;
26038;SDS011;13815;52.374;4.882;2023-04-25T00:57:14;1.00;;;1.00;;
26038;SDS011;13815;52.374;4.882;2023-04-25T00:59:41;0.80;;;0.80;;
26038;SDS011;13815;52.374;4.882;2023-04-25T01:02:10;0.70;;;0.70;;
26038;SDS011;13815;52.374;4.882;2023-04-25T01:04:36;3.30;;;1.02;;
26038;SDS011;13815;52.374;4.882;2023-04-25T01:07:01;2.63;;;1.00;;
26038;SDS011;13815;52.374;4.882;2023-04-25T01:09:27;0.70;;;0.70;;
26038;SDS011;13815;52.374;4.882;2023-04-25T01:11:53;2.28;;;0.90;;
26038;SDS011;13815;52.374;4.882;2023-04-25T01:14:18;0.70;;;0.70;;
26038;SDS011;13815;52.374;4.882;2023-04-25T01:16:44;0.70;;;0.70;;
26038;SDS011;13815;52.374;4.882;2023-04-25T01:19:09;4.22;;;1.20;;
26038;SDS011;13815;52.374;4.882;2023-04-25T01:21:38;0.70;;;0.70;;
26038;SDS011;13815;52.374;4.882;2023-04-25T01:24:04;0.77;;;0.77;;
26038;SDS011;13815;52.374;4.882;2023-04-25T01:26:31;0.82;;;0.82;;
26038;SDS011;13815;52.374;4.882;2023-04-25T01:28:57;0.90;;;0.90;;
26038;SDS011;13815;52.374;4.882;2023-04-25T01:31:23;4.25;;;1.10;;
26038;SDS011;13815;52.374;4.882;2023-04-25T01:33:50;0.80;;;0.80;;
26038;SDS011;13815;52.374;4.882;2023-04-25T01:36:15;2.47;;;1.00;;
26038;SDS011;13815;52.374;4.882;2023-04-25T01:38:40;0.90;;;0.90;;
26038;SDS011;13815;52.374;4.882;2023-04-25T01:41:08;0.70;;;0.70;;
26038;SDS011;13815;52.374;4.882;2023-04-25T01:43:34;0.70;;;0.70;;
26038;SDS011;13815;52.374;4.882;2023-04-25T01:46:00;3.50;;;1.08;;
26038;SDS011;13815;52.374;4.882;2023-04-25T01:48:26;0.60;;;0.60;;
26038;SDS011;13815;52.374;4.882;2023-04-25T01:50:51;0.68;;;0.68;;
26038;SDS011;13815;52.374;4.882;2023-04-25T01:53:16;0.60;;;0.60;;
26038;SDS011;13815;52.374;4.882;2023-04-25T01:55:42;0.70;;;0.70;;
26038;SDS011;13815;52.374;4.882;2023-04-25T01:58:07;1.27;;;0.57;;
26038;SDS011;13815;52.374;4.882;2023-04-25T02:00:34;0.60;;;0.60;;
26038;SDS011;13815;52.374;4.882;2023-04-25T02:03:02;0.70;;;0.70;;
26038;SDS011;13815;52.374;4.882;2023-04-25T02:05:28;6.85;;;1.35;;
26038;SDS011;13815;52.374;4.882;2023-04-25T02:07:53;0.70;;;0.70;;
26038;SDS011;13815;52.374;4.882;2023-04-25T02:10:20;0.80;;;0.80;;
26038;SDS011;13815;52.374;4.882;2023-04-25T02:12:45;0.70;;;0.70;;
26038;SDS011;13815;52.374;4.882;2023-04-25T02:15:10;0.90;;;0.90;;
26038;SDS011;13815;52.374;4.882;2023-04-25T02:17:36;0.90;;;0.90;;
26038;SDS011;13815;52.374;4.882;2023-04-25T02:20:01;1.30;;;1.20;;
26038;SDS011;13815;52.374;4.882;2023-04-25T02:22:27;1.10;;;1.10;;
26038;SDS011;13815;52.374;4.882;2023-04-25T02:24:55;1.10;;;1.10;;
26038;SDS011;13815;52.374;4.882;2023-04-25T02:27:20;1.10;;;1.10;;
26038;SDS011;13815;52.374;4.882;2023-04-25T02:29:46;1.10;;;1.10;;
26038;SDS011;13815;52.374;4.882;2023-04-25T02:32:11;3.80;;;1.33;;
26038;SDS011;13815;52.374;4.882;2023-04-25T02:34:36;1.10;;;1.10;;
26038;SDS011;13815;52.374;4.882;2023-04-25T02:37:02;0.95;;;0.95;;
26038;SDS011;13815;52.374;4.882;2023-04-25T02:39:29;4.38;;;1.60;;
26038;SDS011;13815;52.374;4.882;2023-04-25T02:41:54;1.27;;;1.27;;
26038;SDS011;13815;52.374;4.882;2023-04-25T02:44:20;1.13;;;1.13;;
26038;SDS011;13815;52.374;4.882;2023-04-25T02:46:45;3.97;;;1.42;;
26038;SDS011;13815;52.374;4.882;2023-04-25T02:49:10;1.10;;;1.10;;
26038;SDS011;13815;52.374;4.882;2023-04-25T02:51:36;1.42;;;1.42;;
26038;SDS011;13815;52.374;4.882;2023-04-25T02:54:02;4.75;;;1.60;;
26038;SDS011;13815;52.374;4.882;2023-04-25T02:56:29;1.35;;;1.35;;
26038;SDS011;13815;52.374;4.882;2023-04-25T02:58:54;1.80;;;1.27;;
26038;SDS011;13815;52.374;4.882;2023-04-25T03:01:19;1.48;;;1.48;;
26038;SDS011;13815;52.374;4.882;2023-04-25T03:03:45;1.13;;;1.13;;
26038;SDS011;13815;52.374;4.882;2023-04-25T03:06:10;1.30;;;1.30;;
26038;SDS011;13815;52.374;4.882;2023-04-25T03:08:36;1.90;;;1.90;;
26038;SDS011;13815;52.374;4.882;2023-04-25T03:11:01;2.00;;;2.00;;
26038;SDS011;13815;52.374;4.882;2023-04-25T03:13:26;4.53;;;2.60;;
26038;SDS011;13815;52.374;4.882;2023-04-25T03:15:52;2.40;;;2.40;;
26038;SDS011;13815;52.374;4.882;2023-04-25T03:18:18;2.80;;;2.80;;
26038;SDS011;13815;52.374;4.882;2023-04-25T03:20:46;3.00;;;3.00;;
26038;SDS011;13815;52.374;4.882;2023-04-25T03:23:11;2.70;;;2.70;;
26038;SDS011;13815;52.374;4.882;2023-04-25T03:25:37;2.40;;;2.40;;
26038;SDS011;13815;52.374;4.882;2023-04-25T03:28:02;3.85;;;2.60;;
26038;SDS011;13815;52.374;4.882;2023-04-25T03:30:27;2.40;;;2.40;;
26038;SDS011;13815;52.374;4.882;2023-04-25T03:32:52;2.50;;;2.50;;
26038;SDS011;13815;52.374;4.882;2023-04-25T03:35:18;3.75;;;3.00;;
26038;SDS011;13815;52.374;4.882;2023-04-25T03:37:43;2.95;;;2.60;;
26038;SDS011;13815;52.374;4.882;2023-04-25T03:40:10;2.50;;;2.50;;
26038;SDS011;13815;52.374;4.882;2023-04-25T03:42:37;2.78;;;2.78;;
26038;SDS011;13815;52.374;4.882;2023-04-25T03:45:02;2.70;;;2.70;;
26038;SDS011;13815;52.374;4.882;2023-04-25T03:47:28;4.43;;;2.90;;
26038;SDS011;13815;52.374;4.882;2023-04-25T03:49:54;2.65;;;2.65;;
26038;SDS011;13815;52.374;4.882;2023-04-25T03:52:19;3.28;;;3.17;;
26038;SDS011;13815;52.374;4.882;2023-04-25T03:54:45;2.30;;;2.30;;
26038;SDS011;13815;52.374;4.882;2023-04-25T03:57:10;1.83;;;1.83;;
26038;SDS011;13815;52.374;4.882;2023-04-25T03:59:36;2.00;;;2.00;;
26038;SDS011;13815;52.374;4.882;2023-04-25T04:02:01;5.18;;;2.30;;
26038;SDS011;13815;52.374;4.882;2023-04-25T04:04:30;1.42;;;1.42;;
26038;SDS011;13815;52.374;4.882;2023-04-25T04:06:56;1.00;;;1.00;;
26038;SDS011;13815;52.374;4.882;2023-04-25T04:09:21;5.03;;;1.65;;
26038;SDS011;13815;52.374;4.882;2023-04-25T04:11:47;1.40;;;1.40;;
26038;SDS011;13815;52.374;4.882;2023-04-25T04:14:12;0.90;;;0.90;;
26038;SDS011;13815;52.374;4.882;2023-04-25T04:16:38;4.57;;;1.67;;
26038;SDS011;13815;52.374;4.882;2023-04-25T04:19:03;1.20;;;1.20;;
26038;SDS011;13815;52.374;4.882;2023-04-25T04:21:28;0.90;;;0.90;;
26038;SDS011;13815;52.374;4.882;2023-04-25T04:23:56;1.00;;;1.00;;
26038;SDS011;13815;52.374;4.882;2023-04-25T04:26:22;1.30;;;1.30;;
26038;SDS011;13815;52.374;4.882;2023-04-25T04:28:49;1.75;;;1.08;;
26038;SDS011;13815;52.374;4.882;2023-04-25T04:31:19;1.08;;;1.08;;
26038;SDS011;13815;52.374;4.882;2023-04-25T04:33:45;1.10;;;1.10;;
26038;SDS011;13815;52.374;4.882;2023-04-25T04:36:11;4.35;;;1.30;;
26038;SDS011;13815;52.374;4.882;2023-04-25T04:38:36;1.05;;;1.05;;
26038;SDS011;13815;52.374;4.882;2023-04-25T04:41:02;0.90;;;0.90;;
26038;SDS011;13815;52.374;4.882;2023-04-25T04:43:28;4.15;;;1.42;;
26038;SDS011;13815;52.374;4.882;2023-04-25T04:45:57;1.00;;;1.00;;
26038;SDS011;13815;52.374;4.882;2023-04-25T04:48:23;1.05;;;1.05;;
26038;SDS011;13815;52.374;4.882;2023-04-25T04:50:49;0.82;;;0.82;;
26038;SDS011;13815;52.374;4.882;2023-04-25T04:53:18;1.10;;;1.10;;
26038;SDS011;13815;52.374;4.882;2023-04-25T04:55:43;3.38;;;1.80;;
26038;SDS011;13815;52.374;4.882;2023-04-25T04:58:09;2.88;;;1.60;;
26038;SDS011;13815;52.374;4.882;2023-04-25T05:00:34;0.90;;;0.90;;
26038;SDS011;13815;52.374;4.882;2023-04-25T05:02:59;1.02;;;1.02;;
26038;SDS011;13815;52.374;4.882;2023-04-25T05:05:25;1.00;;;1.00;;
26038;SDS011;13815;52.374;4.882;2023-04-25T05:07:51;0.77;;;0.77;;
26038;SDS011;13815;52.374;4.882;2023-04-25T05:10:19;7.47;;;1.35;;
26038;SDS011;13815;52.374;4.882;2023-04-25T05:12:44;0.80;;;0.80;;
26038;SDS011;13815;52.374;4.882;2023-04-25T05:15:09;0.90;;;0.90;;
26038;SDS011;13815;52.374;4.882;2023-04-25T05:17:35;3.92;;;1.30;;
26038;SDS011;13815;52.374;4.882;2023-04-25T05:20:01;0.82;;;0.82;;
26038;SDS011;13815;52.374;4.882;2023-04-25T05:22:26;0.70;;;0.70;;
26038;SDS011;13815;52.374;4.882;2023-04-25T05:24:52;0.80;;;0.80;;
26038;SDS011;13815;52.374;4.882;2023-04-25T05:27:17;2.95;;;1.05;;
26038;SDS011;13815;52.374;4.882;2023-04-25T05:29:43;0.80;;;0.80;;
26038;SDS011;13815;52.374;4.882;2023-04-25T05:32:08;0.85;;;0.85;;
26038;SDS011;13815;52.374;4.882;2023-04-25T05:34:34;1.23;;;1.23;;
26038;SDS011;13815;52.374;4.882;2023-04-25T05:36:59;0.90;;;0.90;;
26038;SDS011;13815;52.374;4.882;2023-04-25T05:39:25;0.98;;;0.98;;
26038;SDS011;13815;52.374;4.882;2023-04-25T05:41:51;1.10;;;1.10;;
26038;SDS011;13815;52.374;4.882;2023-04-25T05:44:16;8.02;;;1.33;;
26038;SDS011;13815;52.374;4.882;2023-04-25T05:46:42;0.90;;;0.90;;
26038;SDS011;13815;52.374;4.882;2023-04-25T05:49:07;1.27;;;1.27;;
26038;SDS011;13815;52.374;4.882;2023-04-25T05:51:32;5.60;;;1.92;;
26038;SDS011;13815;52.374;4.882;2023-04-25T05:53:58;1.63;;;1.52;;
26038;SDS011;13815;52.374;4.882;2023-04-25T05:56:24;2.25;;;1.88;;
26038;SDS011;13815;52.374;4.882;2023-04-25T05:58:51;6.07;;;2.92;;
26038;SDS011;13815;52.374;4.882;2023-04-25T06:01:16;1.55;;;1.55;;
26038;SDS011;13815;52.374;4.882;2023-04-25T06:03:42;1.40;;;1.40;;
26038;SDS011;13815;52.374;4.882;2023-04-25T06:06:10;1.90;;;1.90;;
26038;SDS011;13815;52.374;4.882;2023-04-25T06:08:37;2.10;;;2.10;;
26038;SDS011;13815;52.374;4.882;2023-04-25T06:11:03;2.60;;;2.50;;
26038;SDS011;13815;52.374;4.882;2023-04-25T06:13:29;4.78;;;2.63;;
26038;SDS011;13815;52.374;4.882;2023-04-25T06:15:54;2.97;;;2.78;;
26038;SDS011;13815;52.374;4.882;2023-04-25T06:18:19;2.58;;;2.47;;
26038;SDS011;13815;52.374;4.882;2023-04-25T06:20:45;3.00;;;3.00;;
26038;SDS011;13815;52.374;4.882;2023-04-25T06:23:10;2.50;;;2.50;;
26038;SDS011;13815;52.374;4.882;2023-04-25T06:25:35;2.42;;;2.42;;
26038;SDS011;13815;52.374;4.882;2023-04-25T06:28:01;2.30;;;2.30;;
26038;SDS011;13815;52.374;4.882;2023-04-25T06:30:26;3.67;;;3.35;;
26038;SDS011;13815;52.374;4.882;2023-04-25T06:32:54;4.53;;;4.13;;
26038;SDS011;13815;52.374;4.882;2023-04-25T06:35:20;4.10;;;4.00;;
26038;SDS011;13815;52.374;4.882;2023-04-25T06:37:45;4.10;;;4.00;;
26038;SDS011;13815;52.374;4.882;2023-04-25T06:40:11;4.82;;;4.40;;
26038;SDS011;13815;52.374;4.882;2023-04-25T06:42:36;4.90;;;4.60;;
26038;SDS011;13815;52.374;4.882;2023-04-25T06:45:02;4.70;;;4.60;;
26038;SDS011;13815;52.374;4.882;2023-04-25T06:47:27;5.50;;;5.40;;
26038;SDS011;13815;52.374;4.882;2023-04-25T06:49:56;6.40;;;6.20;;
26038;SDS011;13815;52.374;4.882;2023-04-25T06:52:21;5.80;;;5.70;;
26038;SDS011;13815;52.374;4.882;2023-04-25T06:54:46;6.00;;;5.90;;
26038;SDS011;13815;52.374;4.882;2023-04-25T06:57:12;6.20;;;6.00;;
26038;SDS011;13815;52.374;4.882;2023-04-25T06:59:38;7.47;;;6.75;;
26038;SDS011;13815;52.374;4.882;2023-04-25T07:02:03;6.75;;;6.55;;
26038;SDS011;13815;52.374;4.882;2023-04-25T07:04:29;7.47;;;7.28;;
26038;SDS011;13815;52.374;4.882;2023-04-25T07:06:55;8.38;;;7.80;;
26038;SDS011;13815;52.374;4.882;2023-04-25T07:09:20;7.70;;;7.50;;
26038;SDS011;13815;52.374;4.882;2023-04-25T07:11:46;8.23;;;8.02;;
26038;SDS011;13815;52.374;4.882;2023-04-25T07:14:11;9.30;;;8.90;;
26038;SDS011;13815;52.374;4.882;2023-04-25T07:16:36;9.25;;;8.95;;
26038;SDS011;13815;52.374;4.882;2023-04-25T07:19:02;9.98;;;9.68;;
26038;SDS011;13815;52.374;4.882;2023-04-25T07:21:27;11.07;;;10.40;;
26038;SDS011;13815;52.374;4.882;2023-04-25T07:23:52;10.70;;;10.30;;
26038;SDS011;13815;52.374;4.882;2023-04-25T07:26:18;10.90;;;10.50;;
26038;SDS011;13815;52.374;4.882;2023-04-25T07:28:43;12.35;;;11.85;;
26038;SDS011;13815;52.374;4.882;2023-04-25T07:31:09;14.77;;;14.07;;
26038;SDS011;13815;52.374;4.882;2023-04-25T07:33:34;15.77;;;14.88;;
26038;SDS011;13815;52.374;4.882;2023-04-25T07:36:01;17.33;;;15.90;;
26038;SDS011;13815;52.374;4.882;2023-04-25T07:38:28;18.55;;;17.15;;
26038;SDS011;13815;52.374;4.882;2023-04-25T07:40:55;21.02;;;19.23;;
26038;SDS011;13815;52.374;4.882;2023-04-25T07:43:20;21.58;;;19.58;;
26038;SDS011;13815;52.374;4.882;2023-04-25T07:45:47;22.10;;;19.88;;
26038;SDS011;13815;52.374;4.882;2023-04-25T07:48:16;24.83;;;21.48;;
26038;SDS011;13815;52.374;4.882;2023-04-25T07:50:43;27.50;;;21.80;;
26038;SDS011;13815;52.374;4.882;2023-04-25T07:53:09;27.83;;;22.52;;
26038;SDS011;13815;52.374;4.882;2023-04-25T07:55:35;28.88;;;22.38;;
26038;SDS011;13815;52.374;4.882;2023-04-25T07:58:01;27.48;;;22.75;;
26038;SDS011;13815;52.374;4.882;2023-04-25T08:00:26;27.88;;;23.55;;
26038;SDS011;13815;52.374;4.882;2023-04-25T08:02:53;30.85;;;23.52;;
26038;SDS011;13815;52.374;4.882;2023-04-25T08:05:18;26.80;;;22.75;;
26038;SDS011;13815;52.374;4.882;2023-04-25T08:07:43;24.75;;;21.23;;
26038;SDS011;13815;52.374;4.882;2023-04-25T08:10:09;25.65;;;20.98;;
26038;SDS011;13815;52.374;4.882;2023-04-25T08:12:34;27.65;;;22.05;;
26038;SDS011;13815;52.374;4.882;2023-04-25T08:15:00;29.38;;;22.10;;
26038;SDS011;13815;52.374;4.882;2023-04-25T08:17:25;27.63;;;22.33;;
26038;SDS011;13815;52.374;4.882;2023-04-25T08:19:51;29.65;;;23.23;;
26038;SDS011;13815;52.374;4.882;2023-04-25T08:22:16;33.67;;;24.90;;
26038;SDS011;13815;52.374;4.882;2023-04-25T08:24:41;34.85;;;25.80;;
26038;SDS011;13815;52.374;4.882;2023-04-25T08:27:07;35.45;;;26.13;;
26038;SDS011;13815;52.374;4.882;2023-04-25T08:29:32;36.75;;;25.23;;
26038;SDS011;13815;52.374;4.882;2023-04-25T08:31:59;35.17;;;26.95;;
26038;SDS011;13815;52.374;4.882;2023-04-25T08:34:24;38.35;;;29.02;;
26038;SDS011;13815;52.374;4.882;2023-04-25T08:36:51;41.10;;;28.60;;
26038;SDS011;13815;52.374;4.882;2023-04-25T08:39:16;36.45;;;26.42;;
26038;SDS011;13815;52.374;4.882;2023-04-25T08:41:42;34.53;;;26.15;;
26038;SDS011;13815;52.374;4.882;2023-04-25T08:44:08;37.75;;;26.52;;
26038;SDS011;13815;52.374;4.882;2023-04-25T08:46:35;34.10;;;24.67;;
26038;SDS011;13815;52.374;4.882;2023-04-25T08:49:03;37.25;;;25.33;;
26038;SDS011;13815;52.374;4.882;2023-04-25T08:51:31;36.35;;;23.95;;
26038;SDS011;13815;52.374;4.882;2023-04-25T08:57:18;34.15;;;24.45;;
26038;SDS011;13815;52.374;4.882;2023-04-25T08:59:45;36.30;;;24.65;;
26038;SDS011;13815;52.374;4.882;2023-04-25T09:02:11;33.63;;;25.17;;
26038;SDS011;13815;52.374;4.882;2023-04-25T09:04:42;35.40;;;26.50;;
26038;SDS011;13815;52.374;4.882;2023-04-25T09:07:08;35.83;;;26.65;;
26038;SDS011;13815;52.374;4.882;2023-04-25T09:09:33;38.85;;;27.15;;
26038;SDS011;13815;52.374;4.882;2023-04-25T09:11:59;42.45;;;29.00;;
26038;SDS011;13815;52.374;4.882;2023-04-25T09:14:26;39.50;;;28.80;;
26038;SDS011;13815;52.374;4.882;2023-04-25T09:19:24;37.95;;;28.20;;
26038;SDS011;13815;52.374;4.882;2023-04-25T09:22:01;39.22;;;30.48;;
26038;SDS011;13815;52.374;4.882;2023-04-25T09:24:38;41.67;;;30.35;;
26038;SDS011;13815;52.374;4.882;2023-04-25T09:27:09;39.47;;;29.70;;
26038;SDS011;13815;52.374;4.882;2023-04-25T09:29:36;41.95;;;29.80;;
26038;SDS011;13815;52.374;4.882;2023-04-25T09:32:15;41.08;;;31.17;;
26038;SDS011;13815;52.374;4.882;2023-04-25T09:34:51;42.63;;;32.10;;
26038;SDS011;13815;52.374;4.882;2023-04-25T09:39:49;45.13;;;31.73;;
26038;SDS011;13815;52.374;4.882;2023-04-25T09:42:16;41.20;;;32.08;;
26038;SDS011;13815;52.374;4.882;2023-04-25T09:44:45;44.05;;;33.30;;
26038;SDS011;13815;52.374;4.882;2023-04-25T09:47:15;43.75;;;33.75;;
26038;SDS011;13815;52.374;4.882;2023-04-25T09:49:43;45.38;;;33.17;;
26038;SDS011;13815;52.374;4.882;2023-04-25T09:52:09;43.53;;;31.60;;
26038;SDS011;13815;52.374;4.882;2023-04-25T09:54:38;43.85;;;31.95;;
26038;SDS011;13815;52.374;4.882;2023-04-25T09:57:10;43.47;;;32.17;;
26038;SDS011;13815;52.374;4.882;2023-04-25T09:59:45;44.90;;;33.38;;
26038;SDS011;13815;52.374;4.882;2023-04-25T10:02:11;43.78;;;33.50;;
26038;SDS011;13815;52.374;4.882;2023-04-25T10:04:41;46.03;;;31.95;;
26038;SDS011;13815;52.374;4.882;2023-04-25T10:07:07;40.47;;;31.15;;
26038;SDS011;13815;52.374;4.882;2023-04-25T10:09:36;40.33;;;31.33;;
26038;SDS011;13815;52.374;4.882;2023-04-25T10:12:04;40.13;;;30.88;;
26038;SDS011;13815;52.374;4.882;2023-04-25T10:14:30;37.20;;;29.73;;
26038;SDS011;13815;52.374;4.882;2023-04-25T10:16:57;36.08;;;28.98;;
26038;SDS011;13815;52.374;4.882;2023-04-25T10:19:23;39.83;;;29.85;;
26038;SDS011;13815;52.374;4.882;2023-04-25T10:21:54;37.05;;;31.02;;
26038;SDS011;13815;52.374;4.882;2023-04-25T10:24:24;38.88;;;32.85;;
26038;SDS011;13815;52.374;4.882;2023-04-25T10:26:50;35.97;;;29.70;;
26038;SDS011;13815;52.374;4.882;2023-04-25T10:29:22;37.35;;;31.17;;
26038;SDS011;13815;52.374;4.882;2023-04-25T10:34:15;38.97;;;31.15;;
26038;SDS011;13815;52.374;4.882;2023-04-25T10:36:41;41.10;;;30.75;;
26038;SDS011;13815;52.374;4.882;2023-04-25T10:39:07;39.42;;;28.88;;
26038;SDS011;13815;52.374;4.882;2023-04-25T10:41:47;42.00;;;30.50;;
26038;SDS011;13815;52.374;4.882;2023-04-25T10:44:13;44.30;;;30.67;;
26038;SDS011;13815;52.374;4.882;2023-04-25T10:46:40;47.13;;;32.88;;
26038;SDS011;13815;52.374;4.882;2023-04-25T10:49:05;44.13;;;31.23;;
26038;SDS011;13815;52.374;4.882;2023-04-25T10:51:33;39.80;;;28.98;;
26038;SDS011;13815;52.374;4.882;2023-04-25T10:54:01;39.55;;;28.95;;
26038;SDS011;13815;52.374;4.882;2023-04-25T10:56:28;43.33;;;31.63;;
26038;SDS011;13815;52.374;4.882;2023-04-25T10:59:02;40.30;;;30.65;;
26038;SDS011;13815;52.374;4.882;2023-04-25T11:01:28;37.50;;;29.85;;
26038;SDS011;13815;52.374;4.882;2023-04-25T11:04:04;38.22;;;29.90;;
26038;SDS011;13815;52.374;4.882;2023-04-25T11:09:12;37.40;;;28.15;;
26038;SDS011;13815;52.374;4.882;2023-04-25T11:11:38;38.38;;;29.27;;
26038;SDS011;13815;52.374;4.882;2023-04-25T11:14:04;38.50;;;30.33;;
26038;SDS011;13815;52.374;4.882;2023-04-25T11:16:32;39.35;;;30.77;;
26038;SDS011;13815;52.374;4.882;2023-04-25T11:18:57;38.03;;;29.35;;
26038;SDS011;13815;52.374;4.882;2023-04-25T11:21:23;41.50;;;30.45;;
26038;SDS011;13815;52.374;4.882;2023-04-25T11:23:51;38.90;;;30.23;;
26038;SDS011;13815;52.374;4.882;2023-04-25T11:26:16;39.42;;;29.98;;
26038;SDS011;13815;52.374;4.882;2023-04-25T11:28:44;41.95;;;30.35;;
26038;SDS011;13815;52.374;4.882;2023-04-25T11:31:10;39.50;;;30.05;;
26038;SDS011;13815;52.374;4.882;2023-04-25T11:33:35;41.05;;;32.17;;
26038;SDS011;13815;52.374;4.882;2023-04-25T11:36:01;44.05;;;32.95;;
26038;SDS011;13815;52.374;4.882;2023-04-25T11:38:26;42.88;;;32.88;;
26038;SDS011;13815;52.374;4.882;2023-04-25T11:40:52;44.17;;;33.88;;
26038;SDS011;13815;52.374;4.882;2023-04-25T11:43:21;43.03;;;33.35;;
26038;SDS011;13815;52.374;4.882;2023-04-25T11:45:50;42.60;;;33.10;;
26038;SDS011;13815;52.374;4.882;2023-04-25T11:48:16;43.03;;;34.08;;
26038;SDS011;13815;52.374;4.882;2023-04-25T11:50:44;42.55;;;32.55;;
26038;SDS011;13815;52.374;4.882;2023-04-25T11:53:09;43.05;;;32.67;;
26038;SDS011;13815;52.374;4.882;2023-04-25T11:55:37;47.20;;;36.03;;
26038;SDS011;13815;52.374;4.882;2023-04-25T11:58:03;44.85;;;34.17;;
26038;SDS011;13815;52.374;4.882;2023-04-25T12:00:30;42.83;;;33.67;;
26038;SDS011;13815;52.374;4.882;2023-04-25T12:02:56;43.83;;;34.80;;
26038;SDS011;13815;52.374;4.882;2023-04-25T12:05:30;46.30;;;35.97;;
26038;SDS011;13815;52.374;4.882;2023-04-25T12:07:58;44.70;;;34.35;;
26038;SDS011;13815;52.374;4.882;2023-04-25T12:10:36;49.38;;;36.33;;
26038;SDS011;13815;52.374;4.882;2023-04-25T12:13:17;51.75;;;38.60;;
26038;SDS011;13815;52.374;4.882;2023-04-25T12:15:49;51.78;;;40.00;;
26038;SDS011;13815;52.374;4.882;2023-04-25T12:18:18;48.83;;;36.35;;
26038;SDS011;13815;52.374;4.882;2023-04-25T12:20:45;50.30;;;37.00;;
26038;SDS011;13815;52.374;4.882;2023-04-25T12:23:11;50.67;;;36.58;;
26038;SDS011;13815;52.374;4.882;2023-04-25T12:25:38;50.30;;;36.25;;
26038;SDS011;13815;52.374;4.882;2023-04-25T12:33:20;51.28;;;39.00;;
26038;SDS011;13815;52.374;4.882;2023-04-25T12:35:46;52.90;;;42.40;;
26038;SDS011;13815;52.374;4.882;2023-04-25T12:38:19;52.80;;;42.60;;
26038;SDS011;13815;52.374;4.882;2023-04-25T12:40:46;51.72;;;39.42;;
26038;SDS011;13815;52.374;4.882;2023-04-25T12:43:11;53.88;;;39.58;;
26038;SDS011;13815;52.374;4.882;2023-04-25T12:45:36;53.90;;;43.65;;
26038;SDS011;13815;52.374;4.882;2023-04-25T12:48:04;49.83;;;38.20;;
26038;SDS011;13815;52.374;4.882;2023-04-25T12:50:30;55.10;;;45.60;;
26038;SDS011;13815;52.374;4.882;2023-04-25T12:52:56;52.67;;;43.30;;
26038;SDS011;13815;52.374;4.882;2023-04-25T12:55:21;58.15;;;44.30;;
26038;SDS011;13815;52.374;4.882;2023-04-25T12:57:46;55.95;;;44.70;;
26038;SDS011;13815;52.374;4.882;2023-04-25T13:00:12;51.13;;;39.20;;
26038;SDS011;13815;52.374;4.882;2023-04-25T13:02:40;52.97;;;38.65;;
26038;SDS011;13815;52.374;4.882;2023-04-25T13:05:05;50.55;;;38.25;;
26038;SDS011;13815;52.374;4.882;2023-04-25T13:07:31;50.08;;;37.08;;
26038;SDS011;13815;52.374;4.882;2023-04-25T13:09:59;55.75;;;42.53;;
26038;SDS011;13815;52.374;4.882;2023-04-25T13:12:27;48.40;;;36.03;;
26038;SDS011;13815;52.374;4.882;2023-04-25T13:14:52;48.17;;;35.75;;
26038;SDS011;13815;52.374;4.882;2023-04-25T13:17:18;50.30;;;36.95;;
26038;SDS011;13815;52.374;4.882;2023-04-25T13:19:43;48.92;;;36.70;;
26038;SDS011;13815;52.374;4.882;2023-04-25T13:22:08;51.78;;;37.20;;
26038;SDS011;13815;52.374;4.882;2023-04-25T13:24:34;49.15;;;36.55;;
26038;SDS011;13815;52.374;4.882;2023-04-25T13:26:59;50.47;;;37.95;;
26038;SDS011;13815;52.374;4.882;2023-04-25T13:29:24;49.72;;;37.35;;
26038;SDS011;13815;52.374;4.882;2023-04-25T13:31:50;49.38;;;36.95;;
26038;SDS011;13815;52.374;4.882;2023-04-25T13:34:15;52.10;;;41.30;;
26038;SDS011;13815;52.374;4.882;2023-04-25T13:36:41;48.60;;;36.20;;
26038;SDS011;13815;52.374;4.882;2023-04-25T13:39:06;51.40;;;39.90;;
26038;SDS011;13815;52.374;4.882;2023-04-25T13:41:31;50.65;;;38.90;;
26038;SDS011;13815;52.374;4.882;2023-04-25T13:43:57;51.33;;;39.60;;
26038;SDS011;13815;52.374;4.882;2023-04-25T13:46:22;50.65;;;38.20;;
26038;SDS011;13815;52.374;4.882;2023-04-25T13:48:49;50.90;;;38.05;;
26038;SDS011;13815;52.374;4.882;2023-04-25T13:51:17;52.22;;;38.97;;
26038;SDS011;13815;52.374;4.882;2023-04-25T13:53:43;47.67;;;34.72;;
26038;SDS011;13815;52.374;4.882;2023-04-25T13:56:08;49.85;;;34.95;;
26038;SDS011;13815;52.374;4.882;2023-04-25T13:58:35;51.30;;;35.30;;
26038;SDS011;13815;52.374;4.882;2023-04-25T14:01:04;50.65;;;35.58;;
26038;SDS011;13815;52.374;4.882;2023-04-25T14:03:30;51.08;;;35.97;;
26038;SDS011;13815;52.374;4.882;2023-04-25T14:05:56;49.83;;;35.03;;
26038;SDS011;13815;52.374;4.882;2023-04-25T14:08:21;51.55;;;35.45;;
26038;SDS011;13815;52.374;4.882;2023-04-25T14:10:46;52.33;;;38.38;;
26038;SDS011;13815;52.374;4.882;2023-04-25T14:13:12;55.47;;;42.58;;
26038;SDS011;13815;52.374;4.882;2023-04-25T14:15:37;50.85;;;37.85;;
26038;SDS011;13815;52.374;4.882;2023-04-25T14:18:03;50.25;;;37.55;;
26038;SDS011;13815;52.374;4.882;2023-04-25T14:20:28;47.40;;;35.05;;
26038;SDS011;13815;52.374;4.882;2023-04-25T14:22:54;51.53;;;40.72;;
26038;SDS011;13815;52.374;4.882;2023-04-25T14:25:23;52.88;;;39.22;;
26038;SDS011;13815;52.374;4.882;2023-04-25T14:27:49;53.50;;;41.53;;
26038;SDS011;13815;52.374;4.882;2023-04-25T14:30:18;51.45;;;38.55;;
26038;SDS011;13815;52.374;4.882;2023-04-25T14:32:44;54.85;;;40.63;;
26038;SDS011;13815;52.374;4.882;2023-04-25T14:35:10;51.72;;;38.05;;
26038;SDS011;13815;52.374;4.882;2023-04-25T14:37:36;52.47;;;40.53;;
26038;SDS011;13815;52.374;4.882;2023-04-25T14:40:01;53.50;;;39.05;;
26038;SDS011;13815;52.374;4.882;2023-04-25T14:42:26;49.63;;;36.05;;
26038;SDS011;13815;52.374;4.882;2023-04-25T14:44:52;49.28;;;34.67;;
26038;SDS011;13815;52.374;4.882;2023-04-25T14:47:17;52.90;;;38.83;;
26038;SDS011;13815;52.374;4.882;2023-04-25T14:49:45;54.60;;;42.28;;